Time;durP1;ratioP1;P1;durP2;ratioP2;P2;SDS_P1;SDS_P2;PMS_P1;PMS_P2;Temp;Humidity;BMP_temperature;BMP_pressure;BME280_temperature;BME280_humidity;BME280_pressure;Samples;Min_cycle;Max_cycle;Signal;HPM_P1;HPM_P2
2024/01/10 00:00:18;;;;;;;28.85;10.05;;;-6.00;99.90;;;;;;5013469;28;20124;-53
2024/01/10 00:02:44;;;;;;;25.42;9.80;;;-6.00;99.90;;;;;;5015384;28;20112;-55
2024/01/10 00:05:09;;;;;;;25.20;9.52;;;-6.00;99.90;;;;;;5015731;28;20669;-54
2024/01/10 00:07:36;;;;;;;24.48;8.77;;;-5.90;99.90;;;;;;5012268;28;20027;-55
2024/01/10 00:10:02;;;;;;;29.13;10.68;;;-6.00;99.90;;;;;;5015338;28;20088;-56
2024/01/10 00:12:33;;;;;;;26.92;10.07;;;-6.00;99.90;;;;;;5016663;28;20094;-56
2024/01/10 00:14:58;;;;;;;20.48;8.55;;;-6.00;99.90;;;;;;5026473;28;20025;-55
2024/01/10 00:17:24;;;;;;;20.00;8.90;;;-6.10;99.90;;;;;;5025337;28;20030;-57
2024/01/10 00:19:50;;;;;;;20.52;9.40;;;-6.20;99.90;;;;;;5003273;28;20030;-55
2024/01/10 00:22:15;;;;;;;25.38;9.32;;;-6.10;99.90;;;;;;5005565;28;20528;-57
2024/01/10 00:24:41;;;;;;;23.20;9.38;;;-6.00;99.90;;;;;;5009927;28;20119;-56
2024/01/10 00:27:06;;;;;;;37.72;10.63;;;-5.90;99.90;;;;;;5007053;28;20511;-55
2024/01/10 00:29:32;;;;;;;34.70;10.07;;;-5.80;99.90;;;;;;5010422;28;20396;-54
2024/01/10 00:31:59;;;;;;;21.73;8.52;;;-5.90;99.90;;;;;;5000925;28;20026;-53
2024/01/10 00:34:24;;;;;;;31.42;10.88;;;-6.00;99.90;;;;;;5006766;28;20030;-55
2024/01/10 00:36:50;;;;;;;27.05;10.15;;;-6.00;99.90;;;;;;5010330;28;20111;-57
2024/01/10 00:39:16;;;;;;;22.85;8.95;;;-6.00;99.90;;;;;;5011957;28;20101;-53
2024/01/10 00:41:41;;;;;;;25.50;9.23;;;-6.10;99.90;;;;;;5003929;28;20108;-55
2024/01/10 00:44:07;;;;;;;20.98;8.75;;;-6.00;99.90;;;;;;5005608;28;20034;-54
2024/01/10 00:46:32;;;;;;;27.13;9.93;;;-6.00;99.90;;;;;;5002155;28;20041;-54
2024/01/10 00:48:57;;;;;;;25.13;9.77;;;-6.00;99.90;;;;;;5008236;28;20092;-54
2024/01/10 00:51:23;;;;;;;23.35;9.80;;;-5.90;99.90;;;;;;5005365;28;20031;-52
2024/01/10 00:53:48;;;;;;;24.55;9.32;;;-5.80;99.90;;;;;;5006905;28;20034;-52
2024/01/10 00:56:14;;;;;;;27.30;10.40;;;-5.90;99.90;;;;;;5009799;28;20036;-55
2024/01/10 00:58:41;;;;;;;31.02;10.82;;;-5.90;99.90;;;;;;5003920;28;20077;-54
2024/01/10 01:01:06;;;;;;;30.58;9.57;;;-6.00;99.90;;;;;;5005966;28;20022;-53
2024/01/10 01:03:32;;;;;;;26.63;9.93;;;-6.00;99.90;;;;;;5006361;28;20033;-55
2024/01/10 01:05:57;;;;;;;27.90;10.88;;;-6.10;99.90;;;;;;5005872;28;20072;-55
2024/01/10 01:08:23;;;;;;;26.05;9.40;;;-6.10;99.90;;;;;;5010944;28;20101;-52
2024/01/10 01:10:48;;;;;;;29.85;10.77;;;-5.90;99.90;;;;;;5005360;28;20116;-51
2024/01/10 01:13:14;;;;;;;27.27;10.70;;;-5.90;99.90;;;;;;5004451;28;20445;-57
2024/01/10 01:15:40;;;;;;;31.70;11.75;;;-5.80;99.90;;;;;;5006624;28;20034;-53
2024/01/10 01:18:05;;;;;;;23.73;10.68;;;-5.90;99.90;;;;;;5001715;28;20407;-56
2024/01/10 01:20:31;;;;;;;28.48;11.05;;;-6.00;99.90;;;;;;5005558;28;20139;-55
2024/01/10 01:22:56;;;;;;;35.08;10.63;;;-6.00;99.90;;;;;;5004629;28;20026;-56
2024/01/10 01:25:22;;;;;;;30.17;10.60;;;-6.00;99.90;;;;;;5002609;28;20034;-52
2024/01/10 01:27:47;;;;;;;27.73;10.25;;;-6.10;99.90;;;;;;5003642;28;20037;-52
2024/01/10 01:30:13;;;;;;;20.45;9.63;;;-6.10;99.90;;;;;;5003933;28;20512;-56
2024/01/10 01:32:38;;;;;;;25.70;10.73;;;-6.20;99.90;;;;;;5002108;28;20053;-56
2024/01/10 01:35:04;;;;;;;30.20;12.45;;;-6.20;99.90;;;;;;5002351;28;20034;-55
2024/01/10 01:37:30;;;;;;;28.90;11.43;;;-6.20;99.90;;;;;;5007289;28;20480;-53
2024/01/10 01:39:55;;;;;;;30.55;11.05;;;-6.30;99.90;;;;;;5007454;28;20030;-56
2024/01/10 01:42:21;;;;;;;28.88;10.95;;;-6.30;99.90;;;;;;5010067;28;20045;-52
2024/01/10 01:44:47;;;;;;;35.45;12.13;;;-6.30;99.90;;;;;;5007692;28;20034;-53
2024/01/10 01:47:12;;;;;;;32.13;12.07;;;-6.20;99.90;;;;;;5000543;28;20026;-55
2024/01/10 01:49:38;;;;;;;25.98;10.65;;;-6.30;99.90;;;;;;5007969;28;20034;-58
2024/01/10 01:52:05;;;;;;;44.92;12.20;;;-6.30;99.90;;;;;;5000062;28;20084;-54
2024/01/10 01:54:31;;;;;;;30.83;11.27;;;-6.40;99.90;;;;;;5005972;28;20029;-58
2024/01/10 01:56:57;;;;;;;32.17;10.25;;;-6.30;99.90;;;;;;5006332;28;20369;-58
2024/01/10 01:59:22;;;;;;;31.52;11.63;;;-6.30;99.90;;;;;;5002221;28;20080;-58
2024/01/10 02:01:48;;;;;;;34.15;11.00;;;-6.30;99.90;;;;;;5001929;28;20014;-55
2024/01/10 02:04:14;;;;;;;29.70;10.95;;;-6.30;99.90;;;;;;5003124;28;20033;-57
2024/01/10 02:06:39;;;;;;;33.13;11.13;;;-6.20;99.90;;;;;;5003135;28;20022;-55
2024/01/10 02:09:05;;;;;;;35.40;11.30;;;-6.20;99.90;;;;;;5009362;28;20037;-58
2024/01/10 02:11:31;;;;;;;28.75;11.55;;;-6.30;99.90;;;;;;5005226;28;20030;-53
2024/01/10 02:13:57;;;;;;;29.90;11.27;;;-6.30;99.90;;;;;;5008387;28;20017;-54
2024/01/10 02:16:24;;;;;;;31.20;11.50;;;-6.20;99.90;;;;;;5008959;28;20033;-54
2024/01/10 02:18:50;;;;;;;28.40;10.50;;;-6.10;99.90;;;;;;5002482;28;20045;-56
2024/01/10 02:21:20;;;;;;;31.30;10.05;;;-6.20;99.90;;;;;;5005833;28;20400;-56
2024/01/10 02:23:45;;;;;;;32.20;12.85;;;-6.20;99.90;;;;;;5002463;28;20464;-55
2024/01/10 02:26:11;;;;;;;30.75;11.00;;;-6.20;99.90;;;;;;4982913;28;20042;-54
2024/01/10 02:28:36;;;;;;;29.38;11.15;;;-6.40;99.90;;;;;;5003913;28;20081;-54
2024/01/10 02:31:02;;;;;;;29.00;11.00;;;-6.40;99.90;;;;;;5007126;28;20029;-54
2024/01/10 02:33:28;;;;;;;30.55;10.98;;;-6.40;99.90;;;;;;5006981;28;20025;-52
2024/01/10 02:35:53;;;;;;;29.25;11.02;;;-6.40;99.90;;;;;;5008766;28;20647;-51
2024/01/10 02:38:21;;;;;;;34.38;11.68;;;-6.40;99.90;;;;;;5014302;28;20021;-55
2024/01/10 02:40:46;;;;;;;27.15;11.15;;;-6.40;99.90;;;;;;5008461;28;20057;-56
2024/01/10 02:43:12;;;;;;;31.48;11.00;;;-6.40;99.90;;;;;;5006522;28;20493;-51
2024/01/10 02:45:38;;;;;;;24.10;10.10;;;-6.50;99.90;;;;;;5011198;28;20037;-56
2024/01/10 02:48:04;;;;;;;29.85;10.70;;;-6.50;99.90;;;;;;5009269;28;20044;-56
2024/01/10 02:50:29;;;;;;;32.72;11.45;;;-6.70;99.90;;;;;;5013561;28;20408;-56
2024/01/10 02:52:54;;;;;;;44.17;11.57;;;-6.70;99.90;;;;;;5013248;28;20041;-53
2024/01/10 02:55:20;;;;;;;32.67;12.07;;;-6.70;99.90;;;;;;5015074;28;20030;-53
2024/01/10 02:57:45;;;;;;;30.15;10.93;;;-6.80;99.90;;;;;;5011399;28;20438;-56
2024/01/10 03:00:12;;;;;;;34.15;11.75;;;-6.70;99.90;;;;;;5006972;28;20422;-54
2024/01/10 03:02:37;;;;;;;38.38;11.52;;;-6.70;99.90;;;;;;5009641;28;20033;-52
2024/01/10 03:05:03;;;;;;;34.30;12.23;;;-6.70;99.90;;;;;;5011956;28;20025;-52
2024/01/10 03:07:28;;;;;;;27.20;10.38;;;-6.70;99.90;;;;;;5013592;28;20049;-52
2024/01/10 03:09:54;;;;;;;26.25;10.30;;;-6.60;99.90;;;;;;5013166;28;20046;-54
2024/01/10 03:12:20;;;;;;;26.25;10.88;;;-6.50;99.90;;;;;;4990451;28;20029;-52
2024/01/10 03:14:45;;;;;;;38.45;12.13;;;-6.40;99.90;;;;;;5006786;28;20030;-54
2024/01/10 03:17:11;;;;;;;29.10;11.75;;;-6.50;99.90;;;;;;5006093;28;20492;-56
2024/01/10 03:19:42;;;;;;;23.25;9.40;;;-6.50;99.90;;;;;;4993909;28;20030;-54
2024/01/10 03:22:08;;;;;;;30.27;10.70;;;-6.40;99.90;;;;;;5010225;28;20022;-53
2024/01/10 03:24:34;;;;;;;29.05;11.77;;;-6.50;99.90;;;;;;5012271;28;20084;-54
2024/01/10 03:26:59;;;;;;;29.58;10.10;;;-6.50;99.90;;;;;;5005921;28;20060;-57
2024/01/10 03:29:25;;;;;;;28.00;10.82;;;-6.50;99.90;;;;;;5009449;28;20026;-53
2024/01/10 03:31:50;;;;;;;26.02;10.02;;;-6.50;99.90;;;;;;5008165;28;20072;-53
2024/01/10 03:34:17;;;;;;;39.15;10.98;;;-6.50;99.90;;;;;;5009367;28;20416;-55
2024/01/10 03:36:43;;;;;;;30.55;11.00;;;-6.60;99.90;;;;;;5006094;28;20030;-53
2024/01/10 03:39:09;;;;;;;26.42;10.32;;;-6.60;99.90;;;;;;5010660;28;20556;-52
2024/01/10 03:41:34;;;;;;;27.60;9.55;;;-6.60;99.90;;;;;;5002233;28;20153;-52
2024/01/10 03:44:00;;;;;;;32.85;11.05;;;-6.70;99.90;;;;;;5007504;28;20026;-52
2024/01/10 03:46:25;;;;;;;30.05;9.70;;;-6.70;99.90;;;;;;5008508;28;20030;-57
2024/01/10 03:48:52;;;;;;;31.67;11.95;;;-6.60;99.90;;;;;;5004429;28;20117;-54
2024/01/10 03:51:18;;;;;;;29.13;10.52;;;-6.70;99.90;;;;;;5008752;28;20074;-52
2024/01/10 03:53:44;;;;;;;27.45;10.35;;;-6.80;99.90;;;;;;5007126;28;20030;-52
2024/01/10 03:56:11;;;;;;;28.80;9.25;;;-6.80;99.90;;;;;;5009760;28;20022;-52
2024/01/10 03:58:37;;;;;;;23.90;9.55;;;-6.70;99.90;;;;;;5005392;28;20411;-55
2024/01/10 04:01:06;;;;;;;32.20;10.55;;;-6.50;99.90;;;;;;5007426;28;20101;-55
2024/01/10 04:03:32;;;;;;;29.45;9.55;;;-6.40;99.90;;;;;;5004257;28;20025;-54
2024/01/10 04:05:58;;;;;;;30.05;11.25;;;-6.40;99.90;;;;;;4991951;28;20109;-54
2024/01/10 04:08:24;;;;;;;26.20;11.10;;;-6.40;99.90;;;;;;5002851;28;20125;-57
2024/01/10 04:10:49;;;;;;;30.90;11.55;;;-6.40;99.90;;;;;;5012757;28;20034;-56
2024/01/10 04:13:15;;;;;;;25.10;9.88;;;-6.50;99.90;;;;;;5011720;28;20021;-52
2024/01/10 04:15:40;;;;;;;24.05;10.02;;;-6.60;99.90;;;;;;5017967;28;20038;-56
2024/01/10 04:18:06;;;;;;;27.27;10.63;;;-6.60;99.90;;;;;;5016511;28;20463;-57
2024/01/10 04:20:32;;;;;;;27.70;11.38;;;-6.50;99.90;;;;;;5013230;28;20033;-53
2024/01/10 04:22:57;;;;;;;29.02;9.82;;;-6.40;99.90;;;;;;5010805;28;20084;-55
2024/01/10 04:25:23;;;;;;;29.02;11.38;;;-6.30;99.90;;;;;;5006443;28;20053;-55
2024/01/10 04:27:50;;;;;;;28.30;10.73;;;-6.20;99.90;;;;;;5005184;28;20033;-56
2024/01/10 04:30:15;;;;;;;30.33;10.80;;;-6.20;99.90;;;;;;5008466;28;20022;-52
2024/01/10 04:32:41;;;;;;;32.75;11.93;;;-6.30;99.90;;;;;;5009388;28;20041;-57
2024/01/10 04:35:07;;;;;;;20.95;9.25;;;-6.30;99.90;;;;;;5012995;28;20037;-56
2024/01/10 04:37:32;;;;;;;26.88;9.90;;;-6.40;99.90;;;;;;4989186;28;20022;-52
2024/01/10 04:39:58;;;;;;;20.38;9.13;;;-6.60;99.90;;;;;;5010366;28;20030;-53
2024/01/10 04:42:23;;;;;;;32.75;11.70;;;-6.70;99.90;;;;;;5011564;28;20321;-56
2024/01/10 04:44:49;;;;;;;32.75;9.80;;;-6.70;99.90;;;;;;5010649;28;20107;-53
2024/01/10 04:47:15;;;;;;;29.17;11.55;;;-6.90;99.90;;;;;;5012495;28;20516;-53
2024/01/10 04:49:41;;;;;;;30.30;10.57;;;-6.90;99.90;;;;;;5006669;28;20473;-53
2024/01/10 04:52:06;;;;;;;27.42;10.00;;;-7.00;99.90;;;;;;5010953;28;20042;-53
2024/01/10 04:54:32;;;;;;;34.03;11.38;;;-7.00;99.90;;;;;;5009597;28;20088;-55
2024/01/10 04:56:58;;;;;;;26.40;9.93;;;-6.90;99.90;;;;;;5006149;28;20117;-52
2024/01/10 04:59:24;;;;;;;28.77;10.45;;;-7.00;99.90;;;;;;5003702;28;20094;-51
2024/01/10 05:01:49;;;;;;;26.88;10.20;;;-7.00;99.90;;;;;;5006577;28;20041;-51
2024/01/10 05:04:15;;;;;;;24.85;10.32;;;-7.00;99.90;;;;;;5003881;28;20054;-52
2024/01/10 05:06:41;;;;;;;25.80;9.93;;;-6.90;99.90;;;;;;5009107;28;20049;-52
2024/01/10 05:09:06;;;;;;;25.88;9.45;;;-6.90;99.90;;;;;;5010920;28;20115;-52
2024/01/10 05:11:32;;;;;;;31.05;11.25;;;-6.90;99.90;;;;;;5005793;28;21742;-58
2024/01/10 05:13:57;;;;;;;26.48;10.07;;;-6.90;99.90;;;;;;5009150;28;20484;-52
2024/01/10 05:16:23;;;;;;;34.53;11.13;;;-6.90;99.90;;;;;;5008846;28;20034;-57
2024/01/10 05:18:48;;;;;;;24.17;9.57;;;-6.80;99.90;;;;;;5010422;28;20037;-52
2024/01/10 05:21:14;;;;;;;32.17;10.93;;;-6.70;99.90;;;;;;4991280;28;20041;-52
2024/01/10 05:23:40;;;;;;;27.75;10.82;;;-6.60;99.90;;;;;;5003353;28;20057;-57
2024/01/10 05:26:05;;;;;;;30.40;10.27;;;-6.60;99.90;;;;;;5008164;28;20029;-54
2024/01/10 05:28:31;;;;;;;27.42;10.93;;;-6.60;99.90;;;;;;4999885;28;20106;-52
2024/01/10 05:30:58;;;;;;;33.75;9.65;;;-6.60;99.90;;;;;;5009998;28;20044;-54
2024/01/10 05:33:23;;;;;;;29.70;10.77;;;-6.80;99.90;;;;;;5004076;28;20491;-54
2024/01/10 05:35:49;;;;;;;27.17;9.98;;;-7.00;99.90;;;;;;5010690;28;20073;-54
2024/01/10 05:38:14;;;;;;;29.85;9.98;;;-7.10;99.90;;;;;;5009474;28;20026;-57
2024/01/10 05:40:40;;;;;;;30.75;10.88;;;-7.10;99.90;;;;;;4991357;28;20057;-54
2024/01/10 05:43:06;;;;;;;31.45;11.30;;;-7.20;99.90;;;;;;5002375;28;20033;-56
2024/01/10 05:45:32;;;;;;;26.50;10.90;;;-7.20;99.90;;;;;;5005618;28;20040;-56
2024/01/10 05:47:58;;;;;;;31.80;11.30;;;-7.10;99.90;;;;;;5003217;28;20030;-54
2024/01/10 05:50:23;;;;;;;32.03;11.05;;;-7.00;99.90;;;;;;5006725;28;20107;-57
2024/01/10 05:52:49;;;;;;;34.17;10.98;;;-6.90;99.90;;;;;;5003535;28;20050;-58
2024/01/10 05:55:14;;;;;;;31.13;10.38;;;-6.80;99.90;;;;;;5008251;28;20022;-58
2024/01/10 05:57:40;;;;;;;28.83;10.90;;;-6.80;99.90;;;;;;5003286;28;20028;-53
2024/01/10 06:00:09;;;;;;;35.85;11.30;;;-6.70;99.90;;;;;;5004256;28;20084;-53
2024/01/10 06:02:41;;;;;;;31.25;10.30;;;-6.70;99.90;;;;;;5007432;28;20093;-55
2024/01/10 06:05:10;;;;;;;24.98;11.15;;;-6.60;99.90;;;;;;5001684;28;20034;-54
2024/01/10 06:07:42;;;;;;;28.33;10.43;;;-6.50;99.90;;;;;;4999386;28;20027;-56
2024/01/10 06:10:09;;;;;;;27.88;10.27;;;-6.40;99.90;;;;;;5002060;28;20045;-57
2024/01/10 06:12:35;;;;;;;23.90;10.20;;;-6.30;99.90;;;;;;5008541;28;20033;-58
2024/01/10 06:15:00;;;;;;;25.08;10.82;;;-6.30;99.90;;;;;;5015764;28;20065;-56
2024/01/10 06:17:26;;;;;;;21.73;9.13;;;-6.20;99.90;;;;;;5011444;28;20022;-52
2024/01/10 06:19:52;;;;;;;31.27;10.77;;;-6.20;99.90;;;;;;5016330;28;20030;-55
2024/01/10 06:22:18;;;;;;;23.67;9.93;;;-6.20;99.90;;;;;;5005742;28;20026;-55
2024/01/10 06:24:44;;;;;;;29.52;10.90;;;-6.40;99.90;;;;;;5002301;28;20117;-54
2024/01/10 06:27:09;;;;;;;29.08;10.35;;;-6.60;99.90;;;;;;5003787;28;20017;-52
2024/01/10 06:29:36;;;;;;;26.27;10.73;;;-6.50;99.90;;;;;;5006062;28;20034;-53
2024/01/10 06:32:02;;;;;;;31.52;11.88;;;-6.40;99.90;;;;;;5001352;28;20413;-52
2024/01/10 06:34:28;;;;;;;32.72;11.40;;;-6.40;99.90;;;;;;5007053;28;20025;-52
2024/01/10 06:36:53;;;;;;;36.35;13.50;;;-6.60;99.90;;;;;;5009771;28;20041;-58
2024/01/10 06:39:19;;;;;;;39.22;11.73;;;-6.60;99.90;;;;;;5009409;28;20030;-53
2024/01/10 06:41:49;;;;;;;34.10;11.52;;;-6.50;99.90;;;;;;5002431;28;20397;-55
2024/01/10 06:44:17;;;;;;;34.40;12.38;;;-6.40;99.90;;;;;;5007224;28;20365;-53
2024/01/10 06:46:43;;;;;;;35.88;13.35;;;-6.30;99.90;;;;;;5005397;28;20034;-52
2024/01/10 06:49:09;;;;;;;35.67;13.57;;;-6.30;99.90;;;;;;5011309;28;20033;-52
2024/01/10 06:51:35;;;;;;;31.33;13.43;;;-6.40;99.90;;;;;;5008535;28;20416;-53
2024/01/10 06:54:03;;;;;;;36.28;13.13;;;-6.60;99.90;;;;;;5009919;28;20043;-56
2024/01/10 06:56:29;;;;;;;39.70;13.55;;;-6.60;99.90;;;;;;5000509;28;20025;-57
2024/01/10 06:58:55;;;;;;;48.17;13.93;;;-6.70;99.90;;;;;;5003477;28;20026;-53
2024/01/10 07:01:21;;;;;;;29.65;11.98;;;-6.70;99.90;;;;;;4999138;28;20032;-55
2024/01/10 07:03:47;;;;;;;40.08;13.38;;;-6.60;99.90;;;;;;4984154;28;20022;-56
2024/01/10 07:06:16;;;;;;;29.77;13.00;;;-6.70;99.90;;;;;;5001058;28;20550;-58
2024/01/10 07:08:42;;;;;;;29.60;11.05;;;-6.60;99.90;;;;;;5001063;28;20052;-57
2024/01/10 07:11:08;;;;;;;28.75;12.30;;;-6.50;99.90;;;;;;5000269;28;20377;-52
2024/01/10 07:13:34;;;;;;;29.02;11.45;;;-6.60;99.90;;;;;;4999171;28;20030;-54
2024/01/10 07:16:01;;;;;;;32.42;11.85;;;-6.60;99.90;;;;;;4999001;28;20034;-54
2024/01/10 07:18:30;;;;;;;38.20;11.95;;;-6.60;99.90;;;;;;4999172;28;20060;-54
2024/01/10 07:20:56;;;;;;;46.33;12.45;;;-6.60;99.90;;;;;;5005196;28;20033;-52
2024/01/10 07:23:22;;;;;;;30.40;11.90;;;-6.50;99.90;;;;;;5009461;28;20029;-51
2024/01/10 07:25:51;;;;;;;31.67;12.20;;;-6.40;99.90;;;;;;5009010;28;20038;-56
2024/01/10 07:28:17;;;;;;;32.35;12.32;;;-6.30;99.90;;;;;;5012843;28;20026;-52
2024/01/10 07:30:44;;;;;;;28.35;12.85;;;-6.50;99.90;;;;;;5008285;28;20113;-51
2024/01/10 07:33:10;;;;;;;32.30;10.80;;;-6.50;99.90;;;;;;5008713;28;20049;-53
2024/01/10 07:35:35;;;;;;;21.80;10.23;;;-6.50;99.90;;;;;;5009500;28;20026;-56
2024/01/10 07:38:01;;;;;;;27.27;11.27;;;-6.50;99.90;;;;;;5005631;28;20022;-54
2024/01/10 07:40:26;;;;;;;33.00;11.32;;;-6.60;99.90;;;;;;5011577;28;20037;-55
2024/01/10 07:42:52;;;;;;;30.00;11.30;;;-6.70;99.90;;;;;;5011112;28;20045;-55
2024/01/10 07:45:17;;;;;;;33.10;11.05;;;-6.60;99.90;;;;;;5008371;28;20623;-55
2024/01/10 07:47:43;;;;;;;30.52;11.95;;;-6.50;99.90;;;;;;5005392;28;20071;-55
2024/01/10 07:50:10;;;;;;;30.40;12.10;;;-6.50;99.90;;;;;;5008897;28;20017;-53
2024/01/10 07:52:36;;;;;;;40.38;12.15;;;-6.50;99.90;;;;;;5007002;28;20091;-55
2024/01/10 07:55:04;;;;;;;26.50;12.40;;;-6.60;99.90;;;;;;5010429;28;20034;-53
2024/01/10 07:57:30;;;;;;;31.33;11.52;;;-6.50;99.90;;;;;;5009740;28;20072;-53
2024/01/10 07:59:56;;;;;;;33.85;12.25;;;-6.50;99.90;;;;;;5005392;28;20026;-55
2024/01/10 08:02:22;;;;;;;32.60;12.07;;;-6.40;99.90;;;;;;5007407;28;20022;-57
2024/01/10 08:04:47;;;;;;;36.80;12.77;;;-6.40;99.90;;;;;;5009050;28;21598;-54
2024/01/10 08:07:13;;;;;;;36.50;11.63;;;-6.40;99.90;;;;;;5009881;28;20489;-53
2024/01/10 08:09:38;;;;;;;35.95;11.75;;;-6.40;99.90;;;;;;5007109;28;20508;-53
2024/01/10 08:12:04;;;;;;;31.13;11.30;;;-6.40;99.90;;;;;;5025354;28;20061;-53
2024/01/10 08:14:30;;;;;;;35.13;12.02;;;-6.40;99.90;;;;;;5021689;28;20045;-57
2024/01/10 08:16:58;;;;;;;30.95;11.77;;;-6.30;99.90;;;;;;5023511;28;20103;-56
2024/01/10 08:19:25;;;;;;;27.63;11.82;;;-6.30;99.90;;;;;;5020482;28;20018;-56
2024/01/10 08:21:51;;;;;;;35.28;12.35;;;-6.40;99.90;;;;;;5026238;28;20019;-60
2024/01/10 08:24:17;;;;;;;30.77;11.57;;;-6.50;99.90;;;;;;5021294;28;20032;-59
2024/01/10 08:26:43;;;;;;;29.73;12.50;;;-6.50;99.90;;;;;;5020104;28;20477;-51
2024/01/10 08:29:08;;;;;;;35.50;12.60;;;-6.50;99.90;;;;;;5005866;28;20062;-54
2024/01/10 08:31:34;;;;;;;43.05;13.00;;;-6.40;99.90;;;;;;5007800;28;20465;-52
2024/01/10 08:33:59;;;;;;;37.38;13.23;;;-6.30;99.90;;;;;;4981900;28;20543;-55
2024/01/10 08:36:25;;;;;;;31.63;13.43;;;-6.30;99.90;;;;;;5006608;28;20515;-53
2024/01/10 08:38:51;;;;;;;40.80;13.77;;;-6.30;99.90;;;;;;5003641;28;20030;-53
2024/01/10 08:41:17;;;;;;;42.13;14.70;;;-6.20;99.90;;;;;;5006428;28;20025;-58
2024/01/10 08:43:42;;;;;;;47.90;15.10;;;-6.10;99.90;;;;;;5003573;28;20446;-50
2024/01/10 08:46:09;;;;;;;33.97;13.52;;;-6.00;99.90;;;;;;5009766;28;20045;-57
2024/01/10 08:48:36;;;;;;;31.83;12.77;;;-5.90;99.90;;;;;;5009660;28;20038;-56
2024/01/10 08:51:02;;;;;;;33.35;13.00;;;-5.80;99.90;;;;;;5011372;28;20049;-54
2024/01/10 08:53:27;;;;;;;33.08;13.57;;;-5.70;99.90;;;;;;5003824;28;20034;-53
2024/01/10 08:55:53;;;;;;;46.55;16.13;;;-5.60;99.90;;;;;;5009081;28;20111;-53
2024/01/10 08:58:18;;;;;;;42.97;16.23;;;-5.60;99.90;;;;;;5009868;28;20050;-57
2024/01/10 09:00:44;;;;;;;28.88;13.27;;;-5.60;99.90;;;;;;5000837;28;20048;-55
2024/01/10 09:03:09;;;;;;;32.67;13.05;;;-5.60;99.90;;;;;;5001688;28;20085;-50
2024/01/10 09:05:35;;;;;;;30.25;13.68;;;-5.60;99.90;;;;;;5004890;28;20030;-54
2024/01/10 09:08:00;;;;;;;33.47;13.98;;;-5.50;99.90;;;;;;5002374;28;20112;-55
2024/01/10 09:10:27;;;;;;;30.90;13.20;;;-5.50;99.90;;;;;;5005485;28;20022;-56
2024/01/10 09:12:53;;;;;;;38.33;13.80;;;-5.60;99.90;;;;;;5004232;28;20022;-55
2024/01/10 09:15:19;;;;;;;34.63;13.43;;;-5.70;99.90;;;;;;5004378;28;20026;-53
2024/01/10 09:17:45;;;;;;;33.65;14.77;;;-5.70;99.90;;;;;;5009020;28;20384;-53
2024/01/10 09:20:11;;;;;;;39.58;14.55;;;-5.70;99.90;;;;;;5002167;28;20169;-52
2024/01/10 09:22:37;;;;;;;33.75;14.50;;;-5.60;99.90;;;;;;4999850;28;20025;-57
2024/01/10 09:25:05;;;;;;;41.45;15.50;;;-5.60;99.90;;;;;;5001041;28;20519;-55
2024/01/10 09:27:31;;;;;;;39.05;15.15;;;-5.50;99.90;;;;;;4999291;28;20038;-54
2024/01/10 09:29:57;;;;;;;33.75;14.60;;;-5.40;99.90;;;;;;4983072;28;20512;-53
2024/01/10 09:32:22;;;;;;;34.75;14.63;;;-5.40;99.90;;;;;;4982078;28;20044;-53
2024/01/10 09:34:48;;;;;;;37.53;15.38;;;-5.40;99.90;;;;;;5000748;28;20092;-54
2024/01/10 09:37:13;;;;;;;37.17;13.98;;;-5.30;99.90;;;;;;5000167;28;20026;-53
2024/01/10 09:39:39;;;;;;;44.63;14.88;;;-5.20;99.90;;;;;;4999627;28;20030;-53
2024/01/10 09:42:06;;;;;;;37.50;14.57;;;-5.20;99.90;;;;;;5003900;28;20057;-55
2024/01/10 09:44:33;;;;;;;34.50;14.13;;;-5.20;99.90;;;;;;5000459;28;20030;-52
2024/01/10 09:46:58;;;;;;;35.33;15.23;;;-5.10;99.90;;;;;;4998906;28;20404;-49
2024/01/10 09:49:25;;;;;;;38.97;15.82;;;-5.10;99.90;;;;;;4998224;28;20034;-51
2024/01/10 09:51:52;;;;;;;48.63;14.50;;;;;;;;;;4995451;28;20366;-55
2024/01/10 09:54:19;;;;;;;33.78;14.15;;;-5.00;99.90;;;;;;4997958;28;20040;-53
2024/01/10 09:56:45;;;;;;;41.38;16.13;;;-4.80;99.90;;;;;;5004406;28;20496;-54
2024/01/10 09:59:11;;;;;;;40.25;14.73;;;-4.70;99.90;;;;;;5000181;28;20670;-52
2024/01/10 10:01:40;;;;;;;33.72;15.73;;;-4.60;99.90;;;;;;4996971;28;20029;-54
2024/01/10 10:04:09;;;;;;;37.60;15.65;;;-4.50;99.90;;;;;;4977399;28;20053;-53
2024/01/10 10:06:35;;;;;;;38.90;14.48;;;-4.40;99.90;;;;;;4996518;28;20545;-52
2024/01/10 10:09:00;;;;;;;35.63;14.35;;;-4.30;99.90;;;;;;4998781;28;20152;-56
2024/01/10 10:11:26;;;;;;;40.58;16.65;;;-4.20;99.90;;;;;;5002037;28;20026;-54
2024/01/10 10:13:51;;;;;;;46.00;15.68;;;-4.10;99.90;;;;;;4996111;28;20386;-50
2024/01/10 10:16:26;;;;;;;41.05;15.00;;;-4.00;99.90;;;;;;4999326;28;20037;-57
2024/01/10 10:18:57;;;;;;;38.90;16.60;;;-4.00;99.90;;;;;;5000401;28;20080;-53
2024/01/10 10:21:25;;;;;;;38.80;14.60;;;-3.90;99.90;;;;;;4995634;28;20126;-59
2024/01/10 10:24:05;;;;;;;36.15;14.25;;;-3.80;99.90;;;;;;4998162;28;20033;-54
2024/01/10 10:26:34;;;;;;;35.47;14.10;;;-3.60;99.90;;;;;;4981793;28;20034;-55
2024/01/10 10:29:00;;;;;;;32.25;13.50;;;-3.50;99.90;;;;;;4981843;28;20022;-54
2024/01/10 10:31:26;;;;;;;35.47;13.60;;;-3.40;99.90;;;;;;4980675;28;20045;-50
2024/01/10 10:33:52;;;;;;;42.95;14.90;;;-3.30;99.90;;;;;;4999973;28;20029;-57
2024/01/10 10:36:21;;;;;;;45.33;14.98;;;-3.10;99.90;;;;;;5001143;28;20049;-57
2024/01/10 10:38:48;;;;;;;35.58;12.88;;;-3.00;99.90;;;;;;4997345;28;20118;-53
2024/01/10 10:41:14;;;;;;;38.10;13.90;;;-2.90;99.90;;;;;;5001206;28;20050;-56
2024/01/10 10:43:40;;;;;;;36.00;12.13;;;-2.80;99.90;;;;;;4999412;28;21719;-54
2024/01/10 10:46:09;;;;;;;32.67;11.82;;;-2.70;99.90;;;;;;4997330;28;20118;-55
2024/01/10 10:48:36;;;;;;;37.95;12.73;;;-2.70;99.90;;;;;;4999852;28;20545;-52
2024/01/10 10:51:08;;;;;;;38.85;13.32;;;-2.60;99.90;;;;;;4997171;28;20097;-59
2024/01/10 10:53:39;;;;;;;35.75;13.60;;;-2.60;99.90;;;;;;4994386;28;20401;-56
2024/01/10 10:56:07;;;;;;;36.33;14.32;;;-2.50;99.90;;;;;;5002685;28;20053;-56
2024/01/10 10:58:41;;;;;;;36.10;15.80;;;-2.50;99.90;;;;;;4989386;28;20021;-56
2024/01/10 11:01:09;;;;;;;35.90;13.10;;;-2.40;99.90;;;;;;5003813;28;20037;-52
2024/01/10 11:03:37;;;;;;;34.00;12.90;;;-2.30;99.90;;;;;;5006734;28;20022;-58
2024/01/10 11:06:04;;;;;;;37.25;13.02;;;-2.30;99.90;;;;;;4987490;28;20065;-54
2024/01/10 11:08:47;;;;;;;36.60;13.27;;;-2.30;99.90;;;;;;5006734;28;20439;-53
2024/01/10 11:11:35;;;;;;;33.90;14.33;;;-2.20;99.90;;;;;;5010273;28;20032;-51
2024/01/10 11:14:20;;;;;;;32.30;12.82;;;-2.20;99.90;;;;;;5008403;28;20399;-55
2024/01/10 11:17:06;;;;;;;40.25;13.77;;;-2.10;99.90;;;;;;5008046;28;20030;-57
2024/01/10 11:19:49;;;;;;;33.92;12.88;;;-2.10;99.90;;;;;;5005354;28;20026;-56
2024/01/10 11:22:32;;;;;;;39.80;15.47;;;-2.00;99.90;;;;;;5007867;28;20033;-56
2024/01/10 11:24:58;;;;;;;34.35;13.27;;;-1.90;99.90;;;;;;5007543;28;20408;-52
2024/01/10 11:27:26;;;;;;;35.38;13.48;;;-1.80;99.90;;;;;;5007593;28;20112;-54
2024/01/10 11:29:51;;;;;;;37.00;13.50;;;-1.70;99.90;;;;;;5006792;28;20029;-54
2024/01/10 11:32:22;;;;;;;36.55;13.20;;;-1.60;99.90;;;;;;5009139;28;20071;-52
2024/01/10 11:34:58;;;;;;;38.05;13.32;;;-1.50;99.90;;;;;;5008113;28;20523;-53
2024/01/10 11:37:43;;;;;;;39.83;12.85;;;-1.50;99.90;;;;;;5011165;28;20034;-53
2024/01/10 11:40:10;;;;;;;33.72;13.32;;;-1.40;99.90;;;;;;5010003;28;20480;-53
2024/01/10 11:42:46;;;;;;;40.05;13.98;;;-1.50;99.90;;;;;;5006664;28;20026;-53
2024/01/10 11:45:31;;;;;;;38.00;14.68;;;-1.50;99.90;;;;;;5007564;28;20468;-50
2024/01/10 11:47:57;;;;;;;38.70;14.77;;;-1.40;99.90;;;;;;5008216;28;20026;-51
2024/01/10 11:50:23;;;;;;;35.25;14.07;;;-1.30;99.90;;;;;;5007096;28;20029;-51
2024/01/10 11:52:53;;;;;;;36.47;13.85;;;-1.20;99.90;;;;;;5006394;28;20041;-57
2024/01/10 11:55:47;;;;;;;35.95;14.07;;;-1.10;99.90;;;;;;5002595;28;20038;-55
2024/01/10 11:58:13;;;;;;;35.97;14.98;;;-1.00;99.90;;;;;;5007264;28;20045;-51
2024/01/10 12:00:40;;;;;;;37.42;14.30;;;-0.90;99.90;;;;;;5007518;28;20341;-52
2024/01/10 12:03:07;;;;;;;38.92;13.43;;;-0.60;99.90;;;;;;5008870;28;20076;-56
2024/01/10 12:05:34;;;;;;;34.42;13.82;;;-0.50;99.90;;;;;;5006244;28;20122;-51
2024/01/10 12:08:00;;;;;;;35.20;13.27;;;-0.20;99.90;;;;;;5007246;28;20041;-53
2024/01/10 12:10:26;;;;;;;37.38;15.00;;;0.00;99.90;;;;;;5005117;28;20022;-52
2024/01/10 12:12:54;;;;;;;40.50;14.32;;;0.10;99.90;;;;;;5003807;28;20171;-53
2024/01/10 12:15:20;;;;;;;37.40;14.48;;;0.30;99.90;;;;;;5004283;28;20396;-54
2024/01/10 12:17:46;;;;;;;30.85;14.20;;;0.50;99.90;;;;;;5006863;28;20057;-52
2024/01/10 12:20:12;;;;;;;33.72;13.93;;;0.70;99.90;;;;;;5006437;28;20030;-55
2024/01/10 12:22:37;;;;;;;35.60;14.40;;;0.90;99.90;;;;;;5005558;28;20030;-55
2024/01/10 12:25:06;;;;;;;40.72;15.23;;;0.70;99.90;;;;;;5007158;28;20026;-57